sensor_id;sensor_type;location;lat;lon;timestamp;temperature;humidity
6556;DHT22;3311;48.32423000;14.29074500;2022-12-18T07:30:03;13.10;23.70
6556;DHT22;3311;48.32423000;14.29074500;2022-12-18T07:32:30;13.30;23.90
6556;DHT22;3311;48.32423000;14.29074500;2022-12-18T07:34:57;13.60;23.30
6556;DHT22;3311;48.32423000;14.29074500;2022-12-18T07:37:25;13.60;23.10
6556;DHT22;3311;48.32423000;14.29074500;2022-12-18T07:39:52;12.90;22.90
6556;DHT22;3311;48.32423000;14.29074500;2022-12-18T07:42:19;12.30;23.60
6556;DHT22;3311;48.32423000;14.29074500;2022-12-18T07:44:59;12.20;24.10
6556;DHT22;3311;48.32423000;14.29074500;2022-12-18T07:47:33;12.10;24.60
6556;DHT22;3311;48.32423000;14.29074500;2022-12-18T07:50:00;12.00;24.90
6556;DHT22;3311;48.32423000;14.29074500;2022-12-18T07:52:28;11.30;25.20
6556;DHT22;3311;48.32423000;14.29074500;2022-12-18T07:54:55;11.10;26.10
6556;DHT22;3311;48.32423000;14.29074500;2022-12-18T07:57:22;11.10;26.70
6556;DHT22;3311;48.32423000;14.29074500;2022-12-18T07:59:49;11.10;27.30
6556;DHT22;3311;48.32423000;14.29074500;2022-12-18T08:02:17;11.00;27.70
6556;DHT22;3311;48.32423000;14.29074500;2022-12-18T08:04:45;11.20;27.90
6556;DHT22;3311;48.32423000;14.29074500;2022-12-18T08:07:13;11.40;28.00
6556;DHT22;3311;48.32423000;14.29074500;2022-12-18T08:09:41;11.40;27.80
6556;DHT22;3311;48.32423000;14.29074500;2022-12-18T08:12:08;11.30;28.10
6556;DHT22;3311;48.32423000;14.29074500;2022-12-18T08:14:36;11.20;28.20
6556;DHT22;3311;48.32423000;14.29074500;2022-12-18T08:17:03;11.20;27.90
6556;DHT22;3311;48.32423000;14.29074500;2022-12-18T08:19:30;11.00;28.20
6556;DHT22;3311;48.32423000;14.29074500;2022-12-18T08:21:59;10.70;28.60
6556;DHT22;3311;48.32423000;14.29074500;2022-12-18T08:24:26;10.40;29.00
6556;DHT22;3311;48.32423000;14.29074500;2022-12-18T08:26:53;10.00;29.50
6556;DHT22;3311;48.32423000;14.29074500;2022-12-18T08:29:22;9.60;30.70
6556;DHT22;3311;48.32423000;14.29074500;2022-12-18T08:31:50;9.10;31.60
6556;DHT22;3311;48.32423000;14.29074500;2022-12-18T08:34:17;8.90;32.40
6556;DHT22;3311;48.32423000;14.29074500;2022-12-18T08:36:44;8.70;33.00
6556;DHT22;3311;48.32423000;14.29074500;2022-12-18T08:39:13;8.40;33.20
6556;DHT22;3311;48.32423000;14.29074500;2022-12-18T08:41:40;8.20;33.80
6556;DHT22;3311;48.32423000;14.29074500;2022-12-18T08:44:08;8.00;34.10
6556;DHT22;3311;48.32423000;14.29074500;2022-12-18T08:46:52;7.90;34.60
6556;DHT22;3311;48.32423000;14.29074500;2022-12-18T08:49:20;7.70;35.20
6556;DHT22;3311;48.32423000;14.29074500;2022-12-18T08:51:47;7.50;35.40
6556;DHT22;3311;48.32423000;14.29074500;2022-12-18T08:54:16;7.40;35.80
6556;DHT22;3311;48.32423000;14.29074500;2022-12-18T08:56:43;7.20;36.00
6556;DHT22;3311;48.32423000;14.29074500;2022-12-18T08:59:11;7.00;36.60
6556;DHT22;3311;48.32423000;14.29074500;2022-12-18T09:01:38;6.70;36.90
6556;DHT22;3311;48.32423000;14.29074500;2022-12-18T09:04:07;6.70;37.80
6556;DHT22;3311;48.32423000;14.29074500;2022-12-18T09:06:36;6.70;37.30
6556;DHT22;3311;48.32423000;14.29074500;2022-12-18T09:09:04;6.90;37.40
6556;DHT22;3311;48.32423000;14.29074500;2022-12-18T09:11:33;7.30;37.00
6556;DHT22;3311;48.32423000;14.29074500;2022-12-18T09:14:02;7.80;36.20
6556;DHT22;3311;48.32423000;14.29074500;2022-12-18T09:16:29;8.40;35.30
6556;DHT22;3311;48.32423000;14.29074500;2022-12-18T09:19:00;8.70;34.10
6556;DHT22;3311;48.32423000;14.29074500;2022-12-18T09:21:30;9.00;33.40
6556;DHT22;3311;48.32423000;14.29074500;2022-12-18T09:23:59;9.00;33.00
6556;DHT22;3311;48.32423000;14.29074500;2022-12-18T09:26:27;9.20;32.50
6556;DHT22;3311;48.32423000;14.29074500;2022-12-18T09:28:56;9.10;32.40
6556;DHT22;3311;48.32423000;14.29074500;2022-12-18T09:31:24;9.00;32.50
6556;DHT22;3311;48.32423000;14.29074500;2022-12-18T09:33:52;8.90;32.80
6556;DHT22;3311;48.32423000;14.29074500;2022-12-18T09:36:20;8.70;33.00
6556;DHT22;3311;48.32423000;14.29074500;2022-12-18T09:38:48;8.50;33.30
6556;DHT22;3311;48.32423000;14.29074500;2022-12-18T09:44:17;8.00;33.90
6556;DHT22;3311;48.32423000;14.29074500;2022-12-18T09:46:49;8.00;34.50
6556;DHT22;3311;48.32423000;14.29074500;2022-12-18T09:49:23;7.80;35.10
6556;DHT22;3311;48.32423000;14.29074500;2022-12-18T09:51:54;7.70;35.20
6556;DHT22;3311;48.32423000;14.29074500;2022-12-18T09:54:30;7.80;35.80
6556;DHT22;3311;48.32423000;14.29074500;2022-12-18T09:56:59;7.70;35.60
6556;DHT22;3311;48.32423000;14.29074500;2022-12-18T09:59:32;7.90;35.40
6556;DHT22;3311;48.32423000;14.29074500;2022-12-18T10:02:11;7.60;35.30
6556;DHT22;3311;48.32423000;14.29074500;2022-12-18T10:04:39;7.40;35.90
6556;DHT22;3311;48.32423000;14.29074500;2022-12-18T10:07:12;7.50;35.90
6556;DHT22;3311;48.32423000;14.29074500;2022-12-18T10:09:44;7.50;36.20
6556;DHT22;3311;48.32423000;14.29074500;2022-12-18T10:12:21;7.40;36.60
6556;DHT22;3311;48.32423000;14.29074500;2022-12-18T10:14:57;7.30;36.40
6556;DHT22;3311;48.32423000;14.29074500;2022-12-18T10:17:34;7.10;36.60
6556;DHT22;3311;48.32423000;14.29074500;2022-12-18T10:20:12;7.10;37.00
6556;DHT22;3311;48.32423000;14.29074500;2022-12-18T10:22:47;7.00;36.90
6556;DHT22;3311;48.32423000;14.29074500;2022-12-18T10:25:21;7.00;37.10
6556;DHT22;3311;48.32423000;14.29074500;2022-12-18T10:27:54;7.20;37.00
6556;DHT22;3311;48.32423000;14.29074500;2022-12-18T10:30:25;7.20;37.10
6556;DHT22;3311;48.32423000;14.29074500;2022-12-18T10:32:53;7.20;36.90
6556;DHT22;3311;48.32423000;14.29074500;2022-12-18T10:35:23;7.30;37.20
6556;DHT22;3311;48.32423000;14.29074500;2022-12-18T10:38:04;7.20;37.00
6556;DHT22;3311;48.32423000;14.29074500;2022-12-18T10:40:32;7.20;37.00
6556;DHT22;3311;48.32423000;14.29074500;2022-12-18T10:43:05;7.20;37.10
6556;DHT22;3311;48.32423000;14.29074500;2022-12-18T10:45:35;7.30;37.20
6556;DHT22;3311;48.32423000;14.29074500;2022-12-18T10:48:04;7.10;37.20
6556;DHT22;3311;48.32423000;14.29074500;2022-12-18T10:50:35;7.20;37.50
6556;DHT22;3311;48.32423000;14.29074500;2022-12-18T10:53:13;7.20;37.50
6556;DHT22;3311;48.32423000;14.29074500;2022-12-18T10:55:48;7.30;37.80
6556;DHT22;3311;48.32423000;14.29074500;2022-12-18T10:58:24;7.40;37.60
6556;DHT22;3311;48.32423000;14.29074500;2022-12-18T11:01:08;7.50;37.50
6556;DHT22;3311;48.32423000;14.29074500;2022-12-18T11:03:39;7.40;37.40
6556;DHT22;3311;48.32423000;14.29074500;2022-12-18T11:06:10;7.50;37.40
6556;DHT22;3311;48.32423000;14.29074500;2022-12-18T11:08:42;7.30;37.40
6556;DHT22;3311;48.32423000;14.29074500;2022-12-18T11:11:19;7.20;37.90
6556;DHT22;3311;48.32423000;14.29074500;2022-12-18T11:13:58;7.20;38.00
6556;DHT22;3311;48.32423000;14.29074500;2022-12-18T11:16:29;7.30;37.80
6556;DHT22;3311;48.32423000;14.29074500;2022-12-18T11:19:19;7.40;37.60
6556;DHT22;3311;48.32423000;14.29074500;2022-12-18T11:21:51;7.30;37.60
6556;DHT22;3311;48.32423000;14.29074500;2022-12-18T11:24:22;7.30;37.60
6556;DHT22;3311;48.32423000;14.29074500;2022-12-18T11:26:54;7.30;37.80
6556;DHT22;3311;48.32423000;14.29074500;2022-12-18T11:29:27;7.30;37.70
6556;DHT22;3311;48.32423000;14.29074500;2022-12-18T11:32:22;7.40;37.70
6556;DHT22;3311;48.32423000;14.29074500;2022-12-18T11:34:57;7.50;37.50
6556;DHT22;3311;48.32423000;14.29074500;2022-12-18T11:37:27;7.50;37.40
6556;DHT22;3311;48.32423000;14.29074500;2022-12-18T11:39:58;7.50;37.10
6556;DHT22;3311;48.32423000;14.29074500;2022-12-18T11:42:34;7.40;37.20
6556;DHT22;3311;48.32423000;14.29074500;2022-12-18T11:45:14;7.50;37.40
6556;DHT22;3311;48.32423000;14.29074500;2022-12-18T11:47:53;7.40;37.50
6556;DHT22;3311;48.32423000;14.29074500;2022-12-18T11:50:26;7.30;37.70
6556;DHT22;3311;48.32423000;14.29074500;2022-12-18T11:52:53;7.20;37.80
6556;DHT22;3311;48.32423000;14.29074500;2022-12-18T11:55:30;7.20;38.10
6556;DHT22;3311;48.32423000;14.29074500;2022-12-18T11:58:08;7.10;38.10
6556;DHT22;3311;48.32423000;14.29074500;2022-12-18T12:00:44;7.10;38.20
6556;DHT22;3311;48.32423000;14.29074500;2022-12-18T12:03:40;7.20;38.30
6556;DHT22;3311;48.32423000;14.29074500;2022-12-18T12:06:17;7.10;38.20
6556;DHT22;3311;48.32423000;14.29074500;2022-12-18T12:08:58;7.20;38.40
6556;DHT22;3311;48.32423000;14.29074500;2022-12-18T12:11:39;7.30;38.40
6556;DHT22;3311;48.32423000;14.29074500;2022-12-18T12:14:20;7.30;38.40
6556;DHT22;3311;48.32423000;14.29074500;2022-12-18T12:16:53;7.30;38.40
6556;DHT22;3311;48.32423000;14.29074500;2022-12-18T12:19:33;7.30;38.50
6556;DHT22;3311;48.32423000;14.29074500;2022-12-18T12:22:07;7.30;39.30
6556;DHT22;3311;48.32423000;14.29074500;2022-12-18T12:24:48;7.40;39.00
6556;DHT22;3311;48.32423000;14.29074500;2022-12-18T12:27:20;7.30;38.90
6556;DHT22;3311;48.32423000;14.29074500;2022-12-18T12:29:59;7.20;39.00
6556;DHT22;3311;48.32423000;14.29074500;2022-12-18T12:32:49;7.30;39.30
6556;DHT22;3311;48.32423000;14.29074500;2022-12-18T12:35:34;7.40;39.30
6556;DHT22;3311;48.32423000;14.29074500;2022-12-18T12:38:13;7.40;39.20
6556;DHT22;3311;48.32423000;14.29074500;2022-12-18T12:40:47;7.50;39.20
6556;DHT22;3311;48.32423000;14.29074500;2022-12-18T12:43:31;7.50;39.10
6556;DHT22;3311;48.32423000;14.29074500;2022-12-18T12:46:06;7.60;39.10
6556;DHT22;3311;48.32423000;14.29074500;2022-12-18T12:48:43;7.60;39.00
6556;DHT22;3311;48.32423000;14.29074500;2022-12-18T12:51:17;7.60;38.90
6556;DHT22;3311;48.32423000;14.29074500;2022-12-18T12:53:46;7.60;39.20
6556;DHT22;3311;48.32423000;14.29074500;2022-12-18T12:56:15;7.60;39.20
6556;DHT22;3311;48.32423000;14.29074500;2022-12-18T12:58:55;7.60;39.20
6556;DHT22;3311;48.32423000;14.29074500;2022-12-18T13:01:33;7.60;39.20
6556;DHT22;3311;48.32423000;14.29074500;2022-12-18T13:04:12;7.60;39.40
6556;DHT22;3311;48.32423000;14.29074500;2022-12-18T13:06:49;7.60;39.50
6556;DHT22;3311;48.32423000;14.29074500;2022-12-18T13:09:20;7.60;39.70
6556;DHT22;3311;48.32423000;14.29074500;2022-12-18T13:11:50;7.50;40.00
6556;DHT22;3311;48.32423000;14.29074500;2022-12-18T13:14:38;7.50;40.30
6556;DHT22;3311;48.32423000;14.29074500;2022-12-18T13:17:29;7.40;40.20
6556;DHT22;3311;48.32423000;14.29074500;2022-12-18T13:20:22;7.40;40.60
6556;DHT22;3311;48.32423000;14.29074500;2022-12-18T13:23:32;7.50;40.70
6556;DHT22;3311;48.32423000;14.29074500;2022-12-18T13:26:32;7.60;40.60
6556;DHT22;3311;48.32423000;14.29074500;2022-12-18T13:29:02;7.60;40.50
6556;DHT22;3311;48.32423000;14.29074500;2022-12-18T13:31:59;7.70;40.40
6556;DHT22;3311;48.32423000;14.29074500;2022-12-18T13:34:29;7.90;40.30
6556;DHT22;3311;48.32423000;14.29074500;2022-12-18T13:43:41;7.70;40.40
6556;DHT22;3311;48.32423000;14.29074500;2022-12-18T13:46:26;7.70;40.50
6556;DHT22;3311;48.32423000;14.29074500;2022-12-18T13:48:58;7.80;40.60
6556;DHT22;3311;48.32423000;14.29074500;2022-12-18T13:51:28;7.80;40.40
6556;DHT22;3311;48.32423000;14.29074500;2022-12-18T13:54:00;7.90;40.50
6556;DHT22;3311;48.32423000;14.29074500;2022-12-18T13:56:33;7.80;40.80
6556;DHT22;3311;48.32423000;14.29074500;2022-12-18T13:59:21;7.60;41.20
6556;DHT22;3311;48.32423000;14.29074500;2022-12-18T14:01:52;7.60;41.40
6556;DHT22;3311;48.32423000;14.29074500;2022-12-18T14:04:25;7.50;41.60
6556;DHT22;3311;48.32423000;14.29074500;2022-12-18T14:07:02;7.50;41.90
6556;DHT22;3311;48.32423000;14.29074500;2022-12-18T14:09:34;7.30;42.00
6556;DHT22;3311;48.32423000;14.29074500;2022-12-18T14:12:06;7.20;42.40
6556;DHT22;3311;48.32423000;14.29074500;2022-12-18T14:14:52;7.20;42.50
6556;DHT22;3311;48.32423000;14.29074500;2022-12-18T14:17:23;7.30;42.50
6556;DHT22;3311;48.32423000;14.29074500;2022-12-18T14:19:51;7.30;42.60
6556;DHT22;3311;48.32423000;14.29074500;2022-12-18T14:22:20;7.30;42.40
6556;DHT22;3311;48.32423000;14.29074500;2022-12-18T14:25:04;7.20;42.50
6556;DHT22;3311;48.32423000;14.29074500;2022-12-18T14:27:37;7.30;42.50
6556;DHT22;3311;48.32423000;14.29074500;2022-12-18T14:30:24;7.20;42.60
6556;DHT22;3311;48.32423000;14.29074500;2022-12-18T14:33:04;7.20;42.50
6556;DHT22;3311;48.32423000;14.29074500;2022-12-18T14:35:32;7.30;42.50
6556;DHT22;3311;48.32423000;14.29074500;2022-12-18T14:38:28;7.30;42.30
6556;DHT22;3311;48.32423000;14.29074500;2022-12-18T14:41:01;7.50;42.30
6556;DHT22;3311;48.32423000;14.29074500;2022-12-18T14:43:34;7.60;42.10
6556;DHT22;3311;48.32423000;14.29074500;2022-12-18T14:46:03;7.40;42.10
6556;DHT22;3311;48.32423000;14.29074500;2022-12-18T14:48:38;7.40;42.20
6556;DHT22;3311;48.32423000;14.29074500;2022-12-18T14:51:15;7.40;42.20
6556;DHT22;3311;48.32423000;14.29074500;2022-12-18T14:53:46;7.40;42.30
6556;DHT22;3311;48.32423000;14.29074500;2022-12-18T14:56:20;7.50;42.30
6556;DHT22;3311;48.32423000;14.29074500;2022-12-18T14:58:56;7.40;42.10
6556;DHT22;3311;48.32423000;14.29074500;2022-12-18T15:01:27;7.70;42.00
6556;DHT22;3311;48.32423000;14.29074500;2022-12-18T15:03:58;8.00;41.60
6556;DHT22;3311;48.32423000;14.29074500;2022-12-18T15:06:36;8.30;40.90
6556;DHT22;3311;48.32423000;14.29074500;2022-12-18T15:09:24;8.50;40.20
6556;DHT22;3311;48.32423000;14.29074500;2022-12-18T15:12:01;8.80;39.70
6556;DHT22;3311;48.32423000;14.29074500;2022-12-18T15:14:42;9.00;39.00
6556;DHT22;3311;48.32423000;14.29074500;2022-12-18T15:17:20;9.20;39.20
6556;DHT22;3311;48.32423000;14.29074500;2022-12-18T15:19:51;9.40;38.20
6556;DHT22;3311;48.32423000;14.29074500;2022-12-18T15:22:26;9.30;37.90
6556;DHT22;3311;48.32423000;14.29074500;2022-12-18T15:25:02;9.20;38.10
6556;DHT22;3311;48.32423000;14.29074500;2022-12-18T15:27:34;8.90;38.20
6556;DHT22;3311;48.32423000;14.29074500;2022-12-18T15:30:25;8.90;38.50
6556;DHT22;3311;48.32423000;14.29074500;2022-12-18T15:33:20;8.80;38.60
6556;DHT22;3311;48.32423000;14.29074500;2022-12-18T15:35:58;8.70;39.00
6556;DHT22;3311;48.32423000;14.29074500;2022-12-18T15:38:26;8.50;39.30
6556;DHT22;3311;48.32423000;14.29074500;2022-12-18T15:40:59;8.40;39.60
6556;DHT22;3311;48.32423000;14.29074500;2022-12-18T15:43:32;8.20;39.90
6556;DHT22;3311;48.32423000;14.29074500;2022-12-18T15:46:08;7.90;40.50
6556;DHT22;3311;48.32423000;14.29074500;2022-12-18T15:48:39;7.80;41.50
6556;DHT22;3311;48.32423000;14.29074500;2022-12-18T15:51:13;7.70;41.10
6556;DHT22;3311;48.32423000;14.29074500;2022-12-18T15:53:47;7.70;41.30
6556;DHT22;3311;48.32423000;14.29074500;2022-12-18T15:56:17;7.60;41.40
6556;DHT22;3311;48.32423000;14.29074500;2022-12-18T15:59:10;7.60;41.50
6556;DHT22;3311;48.32423000;14.29074500;2022-12-18T16:01:42;7.60;41.60
6556;DHT22;3311;48.32423000;14.29074500;2022-12-18T16:04:14;7.60;41.70
6556;DHT22;3311;48.32423000;14.29074500;2022-12-18T16:06:52;7.60;41.60
6556;DHT22;3311;48.32423000;14.29074500;2022-12-18T16:09:23;7.50;41.60
6556;DHT22;3311;48.32423000;14.29074500;2022-12-18T16:12:14;7.50;41.70
6556;DHT22;3311;48.32423000;14.29074500;2022-12-18T16:15:03;7.40;41.90
6556;DHT22;3311;48.32423000;14.29074500;2022-12-18T16:17:34;7.50;41.90
6556;DHT22;3311;48.32423000;14.29074500;2022-12-18T16:20:05;7.40;41.80
6556;DHT22;3311;48.32423000;14.29074500;2022-12-18T16:22:34;7.40;42.00
6556;DHT22;3311;48.32423000;14.29074500;2022-12-18T16:25:16;7.30;41.90
6556;DHT22;3311;48.32423000;14.29074500;2022-12-18T16:27:47;7.30;42.10
6556;DHT22;3311;48.32423000;14.29074500;2022-12-18T16:30:17;7.40;42.20
6556;DHT22;3311;48.32423000;14.29074500;2022-12-18T16:32:50;7.40;41.90
6556;DHT22;3311;48.32423000;14.29074500;2022-12-18T16:35:21;7.60;41.70
6556;DHT22;3311;48.32423000;14.29074500;2022-12-18T16:37:55;7.80;41.40
6556;DHT22;3311;48.32423000;14.29074500;2022-12-18T16:40:22;8.00;40.80
6556;DHT22;3311;48.32423000;14.29074500;2022-12-18T16:42:54;8.30;40.40
6556;DHT22;3311;48.32423000;14.29074500;2022-12-18T16:45:23;8.20;40.10
6556;DHT22;3311;48.32423000;14.29074500;2022-12-18T16:47:53;8.20;39.90
6556;DHT22;3311;48.32423000;14.29074500;2022-12-18T16:50:22;8.30;39.80
6556;DHT22;3311;48.32423000;14.29074500;2022-12-18T16:52:51;8.40;39.50
6556;DHT22;3311;48.32423000;14.29074500;2022-12-18T16:55:19;8.50;39.40
6556;DHT22;3311;48.32423000;14.29074500;2022-12-18T16:57:49;8.50;38.80
6556;DHT22;3311;48.32423000;14.29074500;2022-12-18T17:00:19;8.60;39.40
6556;DHT22;3311;48.32423000;14.29074500;2022-12-18T17:02:46;8.80;38.60
6556;DHT22;3311;48.32423000;14.29074500;2022-12-18T17:05:17;8.80;38.30
6556;DHT22;3311;48.32423000;14.29074500;2022-12-18T17:07:44;9.00;38.20
6556;DHT22;3311;48.32423000;14.29074500;2022-12-18T17:10:18;8.90;38.00
6556;DHT22;3311;48.32423000;14.29074500;2022-12-18T17:12:56;9.00;37.90
6556;DHT22;3311;48.32423000;14.29074500;2022-12-18T17:15:29;8.90;38.00
6556;DHT22;3311;48.32423000;14.29074500;2022-12-18T17:18:04;8.70;38.10
6556;DHT22;3311;48.32423000;14.29074500;2022-12-18T17:20:35;8.80;38.30
6556;DHT22;3311;48.32423000;14.29074500;2022-12-18T17:23:02;8.70;38.30
6556;DHT22;3311;48.32423000;14.29074500;2022-12-18T17:25:32;8.50;38.60
6556;DHT22;3311;48.32423000;14.29074500;2022-12-18T17:28:03;8.40;38.80
6556;DHT22;3311;48.32423000;14.29074500;2022-12-18T17:30:32;8.20;39.10
6556;DHT22;3311;48.32423000;14.29074500;2022-12-18T17:33:00;8.00;39.20
6556;DHT22;3311;48.32423000;14.29074500;2022-12-18T17:35:39;8.00;39.70
6556;DHT22;3311;48.32423000;14.29074500;2022-12-18T17:38:11;8.00;39.50
6556;DHT22;3311;48.32423000;14.29074500;2022-12-18T17:40:41;8.20;39.40
6556;DHT22;3311;48.32423000;14.29074500;2022-12-18T17:43:10;8.10;39.50
6556;DHT22;3311;48.32423000;14.29074500;2022-12-18T17:45:39;7.80;39.60
6556;DHT22;3311;48.32423000;14.29074500;2022-12-18T17:48:08;7.90;39.80
6556;DHT22;3311;48.32423000;14.29074500;2022-12-18T17:50:42;7.80;39.70
6556;DHT22;3311;48.32423000;14.29074500;2022-12-18T17:53:10;7.70;40.00
6556;DHT22;3311;48.32423000;14.29074500;2022-12-18T17:55:39;7.80;39.90
6556;DHT22;3311;48.32423000;14.29074500;2022-12-18T17:58:11;7.90;39.80
6556;DHT22;3311;48.32423000;14.29074500;2022-12-18T18:00:39;7.90;39.50
6556;DHT22;3311;48.32423000;14.29074500;2022-12-18T18:03:07;8.20;39.20
6556;DHT22;3311;48.32423000;14.29074500;2022-12-18T18:05:35;8.30;38.70
6556;DHT22;3311;48.32423000;14.29074500;2022-12-18T18:08:10;8.30;38.60
6556;DHT22;3311;48.32423000;14.29074500;2022-12-18T18:10:41;8.60;38.30
6556;DHT22;3311;48.32423000;14.29074500;2022-12-18T18:13:20;8.90;37.90
6556;DHT22;3311;48.32423000;14.29074500;2022-12-18T18:16:06;9.10;37.30
6556;DHT22;3311;48.32423000;14.29074500;2022-12-18T18:18:37;9.20;36.80
6556;DHT22;3311;48.32423000;14.29074500;2022-12-18T18:21:07;9.20;36.50
6556;DHT22;3311;48.32423000;14.29074500;2022-12-18T18:23:37;9.20;36.60
6556;DHT22;3311;48.32423000;14.29074500;2022-12-18T18:26:10;9.10;36.60
6556;DHT22;3311;48.32423000;14.29074500;2022-12-18T18:28:37;9.00;36.70
6556;DHT22;3311;48.32423000;14.29074500;2022-12-18T18:31:08;9.10;36.70
6556;DHT22;3311;48.32423000;14.29074500;2022-12-18T18:33:38;8.90;36.60
6556;DHT22;3311;48.32423000;14.29074500;2022-12-18T18:36:10;8.80;36.80
6556;DHT22;3311;48.32423000;14.29074500;2022-12-18T18:38:40;8.80;37.00
6556;DHT22;3311;48.32423000;14.29074500;2022-12-18T18:41:08;8.50;37.00
6556;DHT22;3311;48.32423000;14.29074500;2022-12-18T18:43:36;8.40;37.50
6556;DHT22;3311;48.32423000;14.29074500;2022-12-18T18:46:05;8.40;37.70
6556;DHT22;3311;48.32423000;14.29074500;2022-12-18T18:48:36;8.20;37.80
6556;DHT22;3311;48.32423000;14.29074500;2022-12-18T18:51:06;8.10;38.20
6556;DHT22;3311;48.32423000;14.29074500;2022-12-18T18:53:36;8.00;38.30
6556;DHT22;3311;48.32423000;14.29074500;2022-12-18T18:56:11;7.90;38.50
6556;DHT22;3311;48.32423000;14.29074500;2022-12-18T18:58:40;8.00;38.70
6556;DHT22;3311;48.32423000;14.29074500;2022-12-18T19:01:10;8.00;38.50
6556;DHT22;3311;48.32423000;14.29074500;2022-12-18T19:03:38;8.00;38.50
6556;DHT22;3311;48.32423000;14.29074500;2022-12-18T19:06:07;8.20;38.50
6556;DHT22;3311;48.32423000;14.29074500;2022-12-18T19:08:37;8.40;38.10
6556;DHT22;3311;48.32423000;14.29074500;2022-12-18T19:11:08;8.50;37.80
6556;DHT22;3311;48.32423000;14.29074500;2022-12-18T19:13:55;8.70;37.60
6556;DHT22;3311;48.32423000;14.29074500;2022-12-18T19:16:23;8.70;37.40
6556;DHT22;3311;48.32423000;14.29074500;2022-12-18T19:18:50;8.70;37.40
6556;DHT22;3311;48.32423000;14.29074500;2022-12-18T19:21:18;8.70;37.30
6556;DHT22;3311;48.32423000;14.29074500;2022-12-18T19:23:45;8.70;37.40
6556;DHT22;3311;48.32423000;14.29074500;2022-12-18T19:26:18;8.70;37.50
6556;DHT22;3311;48.32423000;14.29074500;2022-12-18T19:28:46;8.70;37.60
6556;DHT22;3311;48.32423000;14.29074500;2022-12-18T19:31:14;8.60;37.60
6556;DHT22;3311;48.32423000;14.29074500;2022-12-18T19:33:43;8.50;37.70
6556;DHT22;3311;48.32423000;14.29074500;2022-12-18T19:36:14;8.40;38.10
6556;DHT22;3311;48.32423000;14.29074500;2022-12-18T19:38:41;8.30;38.20
6556;DHT22;3311;48.32423000;14.29074500;2022-12-18T19:41:08;8.20;38.50
6556;DHT22;3311;48.32423000;14.29074500;2022-12-18T19:43:37;8.10;38.70
6556;DHT22;3311;48.32423000;14.29074500;2022-12-18T19:46:06;8.10;38.80
6556;DHT22;3311;48.32423000;14.29074500;2022-12-18T19:48:34;8.00;38.70
6556;DHT22;3311;48.32423000;14.29074500;2022-12-18T19:51:04;7.90;39.00
6556;DHT22;3311;48.32423000;14.29074500;2022-12-18T19:53:32;8.00;38.70
6556;DHT22;3311;48.32423000;14.29074500;2022-12-18T19:56:04;7.90;38.70
6556;DHT22;3311;48.32423000;14.29074500;2022-12-18T19:58:32;7.90;38.70
6556;DHT22;3311;48.32423000;14.29074500;2022-12-18T20:01:00;7.80;38.70
6556;DHT22;3311;48.32423000;14.29074500;2022-12-18T20:03:28;7.80;38.80
6556;DHT22;3311;48.32423000;14.29074500;2022-12-18T20:05:55;7.90;38.60
6556;DHT22;3311;48.32423000;14.29074500;2022-12-18T20:08:33;8.10;38.40
6556;DHT22;3311;48.32423000;14.29074500;2022-12-18T20:11:00;8.00;37.90
6556;DHT22;3311;48.32423000;14.29074500;2022-12-18T20:13:28;8.10;37.90
6556;DHT22;3311;48.32423000;14.29074500;2022-12-18T20:15:55;8.10;37.70
6556;DHT22;3311;48.32423000;14.29074500;2022-12-18T20:18:25;8.20;37.60
6556;DHT22;3311;48.32423000;14.29074500;2022-12-18T20:20:52;8.20;37.30
6556;DHT22;3311;48.32423000;14.29074500;2022-12-18T20:23:20;8.20;37.40
6556;DHT22;3311;48.32423000;14.29074500;2022-12-18T20:25:50;8.20;37.50
6556;DHT22;3311;48.32423000;14.29074500;2022-12-18T20:28:19;8.20;37.50
6556;DHT22;3311;48.32423000;14.29074500;2022-12-18T20:30:46;8.20;37.30
6556;DHT22;3311;48.32423000;14.29074500;2022-12-18T20:33:13;8.20;37.40
6556;DHT22;3311;48.32423000;14.29074500;2022-12-18T20:35:42;8.10;37.50
6556;DHT22;3311;48.32423000;14.29074500;2022-12-18T20:38:10;8.10;37.40
6556;DHT22;3311;48.32423000;14.29074500;2022-12-18T20:40:39;8.00;37.50
6556;DHT22;3311;48.32423000;14.29074500;2022-12-18T20:43:08;8.00;37.60
6556;DHT22;3311;48.32423000;14.29074500;2022-12-18T20:45:36;8.00;37.90
6556;DHT22;3311;48.32423000;14.29074500;2022-12-18T20:48:03;8.00;37.80
6556;DHT22;3311;48.32423000;14.29074500;2022-12-18T20:50:30;8.10;37.80
6556;DHT22;3311;48.32423000;14.29074500;2022-12-18T20:52:59;8.10;37.80
6556;DHT22;3311;48.32423000;14.29074500;2022-12-18T20:55:26;8.00;37.70
6556;DHT22;3311;48.32423000;14.29074500;2022-12-18T20:57:54;8.20;37.80
6556;DHT22;3311;48.32423000;14.29074500;2022-12-18T21:00:21;8.30;37.30
6556;DHT22;3311;48.32423000;14.29074500;2022-12-18T21:02:48;8.20;37.30
6556;DHT22;3311;48.32423000;14.29074500;2022-12-18T21:05:15;8.40;37.30
6556;DHT22;3311;48.32423000;14.29074500;2022-12-18T21:07:43;8.50;37.20
6556;DHT22;3311;48.32423000;14.29074500;2022-12-18T21:10:11;9.60;37.50
6556;DHT22;3311;48.32423000;14.29074500;2022-12-18T21:12:39;8.60;36.40
6556;DHT22;3311;48.32423000;14.29074500;2022-12-18T21:15:12;8.60;36.10
6556;DHT22;3311;48.32423000;14.29074500;2022-12-18T21:17:39;8.40;36.10
6556;DHT22;3311;48.32423000;14.29074500;2022-12-18T21:20:08;8.40;36.30
6556;DHT22;3311;48.32423000;14.29074500;2022-12-18T21:22:36;8.30;36.50
6556;DHT22;3311;48.32423000;14.29074500;2022-12-18T21:25:03;8.20;36.30
6556;DHT22;3311;48.32423000;14.29074500;2022-12-18T21:27:33;8.20;36.70
6556;DHT22;3311;48.32423000;14.29074500;2022-12-18T21:30:05;8.20;36.60
6556;DHT22;3311;48.32423000;14.29074500;2022-12-18T21:32:34;8.20;36.60
6556;DHT22;3311;48.32423000;14.29074500;2022-12-18T21:35:02;8.00;36.70
6556;DHT22;3311;48.32423000;14.29074500;2022-12-18T21:37:29;8.00;36.70
6556;DHT22;3311;48.32423000;14.29074500;2022-12-18T21:39:58;8.00;36.50
6556;DHT22;3311;48.32423000;14.29074500;2022-12-18T21:42:25;8.00;36.70
6556;DHT22;3311;48.32423000;14.29074500;2022-12-18T21:45:12;8.20;36.60
6556;DHT22;3311;48.32423000;14.29074500;2022-12-18T21:47:40;8.40;36.30
6556;DHT22;3311;48.32423000;14.29074500;2022-12-18T21:50:08;8.80;35.90
6556;DHT22;3311;48.32423000;14.29074500;2022-12-18T21:52:36;8.90;35.10